Time;durP1;ratioP1;P1;durP2;ratioP2;P2;SDS_P1;SDS_P2;PMS_P1;PMS_P2;Temp;Humidity;BMP_temperature;BMP_pressure;BME280_temperature;BME280_humidity;BME280_pressure;Samples;Min_cycle;Max_cycle;Signal;HPM_P1;HPM_P2
2021/11/19 00:00:13;;;;;;;50.58;10.05;;;;;;;-145.71;100.00;60690.53;4769399;30;20065;-93
2021/11/19 00:03:38;;;;;;;44.10;9.02;;;;;;;-145.71;100.00;60690.53;4771151;30;20489;-94
2021/11/19 00:07:02;;;;;;;50.45;8.18;;;;;;;-145.71;100.00;60690.53;4769138;30;20154;-94
2021/11/19 00:10:27;;;;;;;53.10;10.07;;;;;;;-145.71;100.00;60690.53;4769779;30;20043;-93
2021/11/19 00:13:51;;;;;;;50.92;9.55;;;;;;;-145.71;100.00;60690.53;4769035;30;20070;-94
2021/11/19 00:17:17;;;;;;;49.30;8.43;;;;;;;-145.71;100.00;60690.53;4768987;30;20036;-94
2021/11/19 00:20:44;;;;;;;33.80;6.38;;;;;;;-145.71;100.00;60690.53;4768302;30;20042;-94
2021/11/19 00:24:10;;;;;;;42.33;6.63;;;;;;;-145.71;100.00;60690.53;4782168;24;20118;-94
2021/11/19 00:27:37;;;;;;;48.40;7.88;;;;;;;-145.71;100.00;60690.53;4772168;30;20201;-94
2021/11/19 00:31:05;;;;;;;45.92;7.60;;;;;;;-145.71;100.00;60690.53;4755476;30;20126;-94
2021/11/19 00:34:30;;;;;;;49.40;7.65;;;;;;;-145.71;100.00;60690.53;4769699;30;20079;-94
2021/11/19 00:37:55;;;;;;;43.42;7.60;;;;;;;-145.71;100.00;60690.53;4755200;30;20036;-95
2021/11/19 00:41:41;;;;;;;38.47;6.72;;;;;;;-145.71;100.00;60690.53;4759802;30;20036;-94
2021/11/19 00:45:06;;;;;;;33.00;6.50;;;;;;;-145.71;100.00;60690.53;4752557;30;20055;-93
2021/11/19 00:48:32;;;;;;;44.65;7.45;;;;;;;-145.71;100.00;60690.53;4756334;30;20043;-93
2021/11/19 00:51:56;;;;;;;44.35;7.40;;;;;;;-145.71;100.00;60690.53;4757164;30;20036;-93
2021/11/19 00:55:22;;;;;;;44.90;7.38;;;;;;;-145.71;100.00;60690.53;4756603;30;20035;-92
2021/11/19 00:58:49;;;;;;;37.47;6.85;;;;;;;-145.71;100.00;60690.53;4755722;30;20530;-92
2021/11/19 01:02:18;;;;;;;44.35;8.40;;;;;;;-145.71;100.00;60690.53;4755609;30;20039;-93
2021/11/19 01:05:42;;;;;;;43.38;6.82;;;;;;;-145.71;100.00;60690.53;4772904;30;20036;-93
2021/11/19 01:09:08;;;;;;;40.50;7.22;;;;;;;-145.71;100.00;60690.53;4770254;30;20122;-93
2021/11/19 01:12:33;;;;;;;40.58;6.03;;;;;;;-145.71;100.00;60690.53;4781681;30;20051;-93
2021/11/19 01:16:04;;;;;;;37.97;7.25;;;;;;;-145.71;100.00;60690.53;4754794;30;20097;-93
2021/11/19 01:19:33;;;;;;;39.08;7.40;;;;;;;-145.71;100.00;60690.53;4771161;30;20401;-93
2021/11/19 01:23:00;;;;;;;40.30;7.10;;;;;;;-145.71;100.00;60690.53;4757663;30;20409;-93
2021/11/19 01:26:30;;;;;;;44.70;7.30;;;;;;;-145.71;100.00;60690.53;4754593;30;20055;-93
2021/11/19 01:29:55;;;;;;;50.90;7.60;;;;;;;-145.71;100.00;60690.53;4769732;30;20038;-93
2021/11/19 01:33:22;;;;;;;47.42;7.80;;;;;;;-145.71;100.00;60690.53;4756512;30;20040;-94
2021/11/19 01:36:46;;;;;;;44.33;6.65;;;;;;;-145.71;100.00;60690.53;4757688;30;20482;-93
2021/11/19 01:40:14;;;;;;;42.75;8.45;;;;;;;-145.71;100.00;60690.53;4757970;30;20066;-94
2021/11/19 01:43:49;;;;;;;56.42;9.35;;;;;;;-145.71;100.00;60690.53;4771664;30;20044;-93
2021/11/19 01:47:14;;;;;;;44.15;9.45;;;;;;;-145.71;100.00;60690.53;4771315;30;20051;-93
2021/11/19 01:50:44;;;;;;;48.78;10.32;;;;;;;-145.71;100.00;60690.53;4770437;30;20043;-93
2021/11/19 01:54:27;;;;;;;47.22;9.38;;;;;;;-145.71;100.00;60690.53;4757976;30;20035;-93
2021/11/19 01:57:54;;;;;;;58.70;11.38;;;;;;;-145.71;100.00;60690.53;4754424;30;20089;-93
2021/11/19 02:01:27;;;;;;;45.80;9.52;;;;;;;-145.71;100.00;60690.53;4755608;30;20460;-93
2021/11/19 02:05:04;;;;;;;52.17;10.23;;;;;;;-145.71;100.00;60690.53;4766421;30;20035;-94
2021/11/19 02:08:35;;;;;;;48.50;9.88;;;;;;;-145.71;100.00;60690.53;4761188;30;20032;-94
2021/11/19 02:12:18;;;;;;;47.78;9.90;;;;;;;-145.71;100.00;60690.53;4760188;30;20500;-94
2021/11/19 02:16:02;;;;;;;51.25;7.55;;;;;;;-145.71;100.00;60690.53;4759090;30;20560;-94
2021/11/19 02:20:03;;;;;;;63.97;10.85;;;;;;;-145.71;100.00;60690.53;4757570;30;20108;-94
2021/11/19 02:23:44;;;;;;;40.92;8.55;;;;;;;-145.71;100.00;60690.53;4738488;30;20528;-94
2021/11/19 02:27:22;;;;;;;63.92;12.85;;;;;;;-145.71;100.00;60690.53;4760410;30;20047;-94
2021/11/19 02:30:51;;;;;;;49.40;11.63;;;;;;;-145.71;100.00;60690.53;4763155;30;20028;-93
2021/11/19 02:34:16;;;;;;;49.42;10.00;;;;;;;-145.71;100.00;60690.53;4753463;30;20038;-92
2021/11/19 02:37:48;;;;;;;50.08;12.25;;;;;;;-145.71;100.00;60690.53;4753358;30;20055;-93
2021/11/19 02:41:19;;;;;;;47.60;10.65;;;;;;;-145.71;100.00;60690.53;4753695;30;20528;-93
2021/11/19 02:44:52;;;;;;;42.78;10.82;;;;;;;-145.71;100.00;60690.53;4753468;30;20581;-93
2021/11/19 02:48:20;;;;;;;45.38;8.35;;;;;;;-145.71;100.00;60690.53;4769518;30;20051;-92
2021/11/19 02:51:47;;;;;;;50.83;9.23;;;;;;;-145.71;100.00;60690.53;4769078;30;20043;-93
2021/11/19 02:55:14;;;;;;;51.25;10.90;;;;;;;-145.71;100.00;60690.53;4773048;30;20038;-92
2021/11/19 02:58:40;;;;;;;57.17;10.77;;;;;;;-145.71;100.00;60690.53;4754499;30;20031;-92
2021/11/19 03:02:07;;;;;;;46.50;8.27;;;;;;;-145.71;100.00;60690.53;4753126;30;20387;-93
2021/11/19 03:05:36;;;;;;;57.25;10.20;;;;;;;-145.71;100.00;60690.53;4753221;30;20870;-93
2021/11/19 03:09:00;;;;;;;47.30;7.75;;;;;;;-145.71;100.00;60690.53;4752981;30;20043;-92
2021/11/19 03:12:25;;;;;;;45.42;10.65;;;;;;;-145.71;100.00;60690.53;4753252;30;20034;-93
2021/11/19 03:15:52;;;;;;;50.67;9.82;;;;;;;-145.71;100.00;60690.53;4772789;30;20569;-93
2021/11/19 03:19:18;;;;;;;52.33;7.80;;;;;;;-145.71;100.00;60690.53;4753047;30;20054;-93
2021/11/19 03:22:43;;;;;;;60.38;11.70;;;;;;;-145.71;100.00;60690.53;4752545;30;20126;-93
2021/11/19 03:26:09;;;;;;;65.90;11.23;;;;;;;-145.71;100.00;60690.53;4754762;30;20066;-93
2021/11/19 03:29:33;;;;;;;53.40;8.15;;;;;;;-145.71;100.00;60690.53;4754654;30;20040;-93
2021/11/19 03:32:57;;;;;;;45.42;10.65;;;;;;;-145.71;100.00;60690.53;4770397;30;20035;-92
2021/11/19 03:36:23;;;;;;;43.05;8.60;;;;;;;-145.71;100.00;60690.53;4771884;30;20039;-94
2021/11/19 03:39:48;;;;;;;60.63;11.32;;;;;;;-145.71;100.00;60690.53;4755534;30;20074;-93
2021/11/19 03:43:16;;;;;;;43.17;10.02;;;;;;;-145.71;100.00;60690.53;4771284;30;20417;-93
2021/11/19 03:46:44;;;;;;;50.85;8.63;;;;;;;-145.71;100.00;60690.53;4755308;30;20044;-93
2021/11/19 03:50:12;;;;;;;50.55;9.27;;;;;;;-145.71;100.00;60690.53;4777163;30;20039;-94
2021/11/19 03:53:38;;;;;;;53.60;10.55;;;;;;;-145.71;100.00;60690.53;4755448;30;20066;-92
2021/11/19 03:57:03;;;;;;;50.75;7.85;;;;;;;-145.71;100.00;60690.53;4754903;30;20070;-93
2021/11/19 04:00:29;;;;;;;39.53;8.57;;;;;;;-145.71;100.00;60690.53;4755120;30;20537;-93
2021/11/19 04:03:54;;;;;;;66.22;9.13;;;;;;;-145.71;100.00;60690.53;4755248;30;20032;-93
2021/11/19 04:07:24;;;;;;;52.92;9.38;;;;;;;-145.71;100.00;60690.53;3423090;24;20248;-91
2021/11/19 04:10:49;;;;;;;46.53;10.43;;;;;;;-145.71;100.00;60690.53;4786571;30;20146;-94
2021/11/19 04:14:13;;;;;;;57.55;10.98;;;;;;;-145.71;100.00;60690.53;4769127;30;20032;-94
2021/11/19 04:17:45;;;;;;;42.00;7.68;;;;;;;-145.71;100.00;60690.53;4769911;30;20043;-94
2021/11/19 04:21:10;;;;;;;45.22;8.52;;;;;;;-145.71;100.00;60690.53;4763701;30;20054;-94
2021/11/19 04:24:37;;;;;;;42.97;7.60;;;;;;;-145.71;100.00;60690.53;4764642;30;20067;-94
2021/11/19 04:28:02;;;;;;;41.97;8.50;;;;;;;-145.71;100.00;60690.53;4765014;30;20040;-94
2021/11/19 04:31:29;;;;;;;46.83;8.07;;;;;;;-145.71;100.00;60690.53;4765411;30;20040;-92
2021/11/19 04:34:55;;;;;;;39.35;8.05;;;;;;;-145.71;100.00;60690.53;4755252;30;20032;-93
2021/11/19 04:38:20;;;;;;;49.63;9.68;;;;;;;-145.71;100.00;60690.53;4754956;30;20044;-93
2021/11/19 04:41:44;;;;;;;51.67;11.02;;;;;;;-145.71;100.00;60690.53;4753429;30;20039;-93
2021/11/19 04:45:11;;;;;;;37.78;6.72;;;;;;;-145.71;100.00;60690.53;4767880;30;20497;-93
2021/11/19 04:48:36;;;;;;;52.30;11.27;;;;;;;-145.71;100.00;60690.53;4752631;30;20040;-93
2021/11/19 04:52:14;;;;;;;46.53;9.43;;;;;;;-145.71;100.00;60690.53;4771494;30;20048;-94
2021/11/19 04:55:46;;;;;;;37.08;8.23;;;;;;;-145.71;100.00;60690.53;4757228;30;20094;-93
2021/11/19 04:59:10;;;;;;;61.90;9.90;;;;;;;-145.71;100.00;60690.53;4752404;30;20032;-93
2021/11/19 05:02:36;;;;;;;41.15;7.70;;;;;;;-145.71;100.00;60690.53;4752511;30;20043;-93
2021/11/19 05:06:01;;;;;;;42.08;8.65;;;;;;;-145.71;100.00;60690.53;4753931;30;20048;-92
2021/11/19 05:09:29;;;;;;;50.90;10.63;;;;;;;-145.71;100.00;60690.53;4752558;30;20071;-92
2021/11/19 05:13:00;;;;;;;42.60;8.38;;;;;;;-145.71;100.00;60690.53;4753575;30;20028;-93
2021/11/19 05:16:25;;;;;;;46.45;9.18;;;;;;;-145.71;100.00;60690.53;4755756;30;20032;-92
2021/11/19 05:19:50;;;;;;;41.78;7.05;;;;;;;-145.71;100.00;60690.53;4754673;30;20055;-91
2021/11/19 05:23:14;;;;;;;47.72;8.60;;;;;;;-145.71;100.00;60690.53;4753410;30;20076;-92
2021/11/19 05:26:40;;;;;;;46.88;9.35;;;;;;;-145.71;100.00;60690.53;4751612;30;20064;-92
2021/11/19 05:30:05;;;;;;;43.97;7.63;;;;;;;-145.71;100.00;60690.53;4753071;30;20039;-92
2021/11/19 05:33:30;;;;;;;40.45;7.88;;;;;;;-145.71;100.00;60690.53;4751529;30;20111;-92
2021/11/19 05:36:54;;;;;;;49.67;7.72;;;;;;;-145.71;100.00;60690.53;4751808;30;20386;-92
2021/11/19 05:40:20;;;;;;;42.80;8.80;;;;;;;-145.71;100.00;60690.53;4756409;30;20401;-92
2021/11/19 10:22:32;;;;;;;45.88;10.10;;;;;;;-145.71;100.00;60690.53;5450305;24;20221;-91
2021/11/19 19:41:07;;;;;;;57.85;8.40;;;;;;;-145.71;100.00;60690.53;4752118;30;20068;-93
2021/11/19 19:44:32;;;;;;;55.85;9.13;;;;;;;-145.71;100.00;60690.53;4767144;30;20050;-93
2021/11/19 19:48:01;;;;;;;59.00;10.73;;;;;;;-145.71;100.00;60690.53;4763067;30;20048;-93
2021/11/19 19:51:28;;;;;;;65.15;10.48;;;;;;;-145.71;100.00;60690.53;4765114;30;20118;-94
2021/11/19 19:54:55;;;;;;;55.95;7.20;;;;;;;-145.71;100.00;60690.53;4763245;30;20160;-93
2021/11/19 19:58:21;;;;;;;48.72;7.30;;;;;;;-145.71;100.00;60690.53;4760637;30;20067;-93
2021/11/19 20:01:47;;;;;;;48.53;7.85;;;;;;;-145.71;100.00;60690.53;4760713;30;20056;-93
2021/11/19 20:08:40;;;;;;;40.00;7.03;;;;;;;-145.71;100.00;60690.53;4804613;24;20089;-93
2021/11/19 20:15:52;;;;;;;49.40;7.38;;;;;;;-145.71;100.00;60690.53;5547054;24;20037;31
2021/11/19 20:19:24;;;;;;;41.95;8.70;;;;;;;-145.71;100.00;60690.53;4768788;30;20048;-93
2021/11/19 20:22:51;;;;;;;41.40;9.07;;;;;;;-145.71;100.00;60690.53;4760642;30;20073;-93
2021/11/19 20:26:19;;;;;;;43.13;8.13;;;;;;;-145.71;100.00;60690.53;4765502;30;20028;-93
2021/11/19 20:29:48;;;;;;;43.33;7.43;;;;;;;-145.71;100.00;60690.53;4767084;30;20062;-93
2021/11/19 20:33:19;;;;;;;66.40;10.43;;;;;;;-145.71;100.00;60690.53;4767187;30;20462;-93
2021/11/19 20:36:44;;;;;;;47.30;8.80;;;;;;;-145.71;100.00;60690.53;4769371;30;20065;-94
2021/11/19 20:40:22;;;;;;;47.78;8.90;;;;;;;-145.71;100.00;60690.53;4766730;30;20056;-93
2021/11/19 20:43:48;;;;;;;60.20;8.50;;;;;;;-145.71;100.00;60690.53;4739195;30;20079;-93
2021/11/19 20:50:53;;;;;;;48.85;8.95;;;;;;;-145.71;100.00;60690.53;1161877;24;21492;-92
2021/11/19 20:54:19;;;;;;;50.10;8.35;;;;;;;-145.71;100.00;60690.53;4740994;30;20056;-93
2021/11/19 20:57:46;;;;;;;52.95;9.25;;;;;;;-145.71;100.00;60690.53;4726314;30;20033;-93
2021/11/19 21:01:16;;;;;;;50.13;8.25;;;;;;;-145.71;100.00;60690.53;4726120;30;20049;-93
2021/11/19 21:04:45;;;;;;;46.15;8.38;;;;;;;-145.71;100.00;60690.53;4731309;30;20126;-93
2021/11/19 21:08:15;;;;;;;49.70;9.00;;;;;;;-145.71;100.00;60690.53;4750274;30;20048;-93
2021/11/19 21:15:13;;;;;;;49.55;9.10;;;;;;;-145.71;100.00;60690.53;4816215;24;20063;-94
2021/11/19 21:18:38;;;;;;;53.50;8.02;;;;;;;-145.71;100.00;60690.53;4787370;30;20047;-93
2021/11/19 21:22:04;;;;;;;56.35;8.70;;;;;;;-145.71;100.00;60690.53;4797761;29;20050;-93
2021/11/19 21:25:49;;;;;;;56.17;9.38;;;;;;;-145.71;100.00;60690.53;4788856;30;20064;-93
2021/11/19 21:29:15;;;;;;;43.42;7.63;;;;;;;-145.71;100.00;60690.53;4787672;30;20049;-93
2021/11/19 21:32:42;;;;;;;39.95;8.07;;;;;;;-145.71;100.00;60690.53;4787891;30;20031;-93
2021/11/19 21:36:09;;;;;;;40.65;7.20;;;;;;;-145.71;100.00;60690.53;4787119;30;20032;-93
2021/11/19 21:39:36;;;;;;;44.83;8.70;;;;;;;-145.71;100.00;60690.53;4787349;30;20130;-93
2021/11/19 21:43:02;;;;;;;45.45;8.73;;;;;;;-145.71;100.00;60690.53;4785863;30;20070;-93
2021/11/19 21:46:37;;;;;;;41.92;7.90;;;;;;;-145.71;100.00;60690.53;4803287;29;20082;-93
2021/11/19 21:50:03;;;;;;;28.17;7.35;;;;;;;-145.71;100.00;60690.53;4790300;29;20107;-93
2021/11/19 21:53:42;;;;;;;53.60;11.02;;;;;;;-145.71;100.00;60690.53;4802894;29;20055;-93
2021/11/19 21:57:10;;;;;;;44.83;10.55;;;;;;;-145.71;100.00;60690.53;4797011;29;20038;-93
2021/11/19 22:00:45;;;;;;;48.45;11.65;;;;;;;-145.71;100.00;60690.53;4789984;30;20047;-93
2021/11/19 22:04:13;;;;;;;33.90;5.90;;;;;;;-145.71;100.00;60690.53;4787977;30;20035;-93
2021/11/19 22:07:39;;;;;;;43.20;7.68;;;;;;;-145.71;100.00;60690.53;4788829;30;20061;-93
2021/11/19 22:11:13;;;;;;;38.85;7.88;;;;;;;-145.71;100.00;60690.53;4787723;30;20031;-93
2021/11/19 22:14:38;;;;;;;34.45;6.57;;;;;;;-145.71;100.00;60690.53;4785884;29;20047;-93
2021/11/19 22:18:08;;;;;;;38.45;10.27;;;;;;;-145.71;100.00;60690.53;4779944;30;20043;-93
2021/11/19 22:21:37;;;;;;;31.75;7.05;;;;;;;-145.71;100.00;60690.53;4793078;29;20039;-93
2021/11/19 22:25:03;;;;;;;39.20;6.65;;;;;;;-145.71;100.00;60690.53;4777382;30;20035;-93
2021/11/19 22:28:31;;;;;;;24.98;5.80;;;;;;;-145.71;100.00;60690.53;4782056;29;20039;-94
2021/11/19 22:32:00;;;;;;;31.77;6.45;;;;;;;-145.71;100.00;60690.53;4777468;30;20042;-93
2021/11/19 22:35:29;;;;;;;36.00;9.07;;;;;;;-145.71;100.00;60690.53;4779504;30;20099;-94
2021/11/19 22:42:29;;;;;;;27.23;5.95;;;;;;;-145.71;100.00;60690.53;4821225;24;20083;-93
2021/11/19 22:45:56;;;;;;;26.85;6.40;;;;;;;-145.71;100.00;60690.53;4779881;30;20444;-93
2021/11/19 22:49:22;;;;;;;18.60;5.28;;;;;;;-145.71;100.00;60690.53;4782273;24;20048;-93
2021/11/19 22:52:48;;;;;;;23.25;5.65;;;;;;;-145.71;100.00;60690.53;4774246;30;20047;-93
2021/11/19 22:56:12;;;;;;;30.15;6.47;;;;;;;-145.71;100.00;60690.53;4778286;29;20031;-93
2021/11/19 22:59:37;;;;;;;27.45;4.93;;;;;;;-145.71;100.00;60690.53;4773030;30;20652;-93
2021/11/19 23:03:03;;;;;;;29.95;5.20;;;;;;;-145.71;100.00;60690.53;4771980;30;20035;-93
2021/11/19 23:06:29;;;;;;;23.63;4.10;;;;;;;-145.71;100.00;60690.53;4772045;30;20040;-93
2021/11/19 23:09:56;;;;;;;26.08;5.10;;;;;;;-145.71;100.00;60690.53;4775772;29;20035;-93
2021/11/19 23:13:22;;;;;;;23.98;4.57;;;;;;;-145.71;100.00;60690.53;4777933;29;20043;-93
2021/11/19 23:16:49;;;;;;;26.77;5.47;;;;;;;-145.71;100.00;60690.53;4776332;30;20039;-93
2021/11/19 23:20:21;;;;;;;30.20;6.07;;;;;;;-145.71;100.00;60690.53;4778797;30;20469;-93
2021/11/19 23:23:45;;;;;;;29.58;6.00;;;;;;;-145.71;100.00;60690.53;4779169;30;20154;-94
2021/11/19 23:27:16;;;;;;;19.38;4.97;;;;;;;-145.71;100.00;60690.53;4779230;29;20047;-93
2021/11/19 23:30:57;;;;;;;30.27;6.65;;;;;;;-145.71;100.00;60690.53;4776410;30;20114;-93
2021/11/19 23:34:29;;;;;;;24.27;7.07;;;;;;;-145.71;100.00;60690.53;4775840;30;20395;-93
2021/11/19 23:38:00;;;;;;;22.55;5.53;;;;;;;-145.71;100.00;60690.53;4775821;30;20031;-93
2021/11/19 23:41:27;;;;;;;34.55;11.93;;;;;;;-145.71;100.00;60690.53;4776280;30;20043;-93
2021/11/19 23:44:52;;;;;;;27.85;9.30;;;;;;;-145.71;100.00;60690.53;4774399;30;20032;-93
2021/11/19 23:48:20;;;;;;;24.55;8.48;;;;;;;-145.71;100.00;60690.53;4774259;30;20070;-93
2021/11/19 23:51:45;;;;;;;23.90;4.97;;;;;;;-145.71;100.00;60690.53;4777167;29;20063;-93
2021/11/19 23:55:17;;;;;;;27.35;3.72;;;;;;;-145.71;100.00;60690.53;4782558;29;20036;-94
2021/11/19 23:58:42;;;;;;;33.35;5.57;;;;;;;-145.71;100.00;60690.53;4781260;30;20048;-93
